Time;durP1;ratioP1;P1;durP2;ratioP2;P2;SDS_P1;SDS_P2;PMS_P1;PMS_P2;Temp;Humidity;BMP_temperature;BMP_pressure;BME280_temperature;BME280_humidity;BME280_pressure;Samples;Min_cycle;Max_cycle;Signal;HPM_P1;HPM_P2
2023/11/05 00:01:20;;;;;;;;;;;15.90;95.50;;;;;;6126838;23;19927;-73
2023/11/05 00:03:46;;;;;;;;;;;15.90;95.70;;;;;;6126773;23;20313;-73
2023/11/05 00:06:12;;;;;;;;;;;16.00;95.80;;;;;;6100949;23;19901;-73
2023/11/05 00:08:37;;;;;;;;;;;15.90;95.60;;;;;;6127543;23;19984;-73
2023/11/05 00:11:03;;;;;;;;;;;15.90;95.50;;;;;;6127063;23;19901;-73
2023/11/05 00:13:29;;;;;;;;;;;16.20;95.60;;;;;;6126964;23;19908;-73
2023/11/05 00:15:55;;;;;;;;;;;15.90;95.70;;;;;;6126870;23;19905;-73
2023/11/05 00:18:22;;;;;;;;;;;16.00;95.60;;;;;;6127017;23;19901;-73
2023/11/05 00:20:48;;;;;;;;;;;15.90;95.60;;;;;;6126953;23;20381;-73
2023/11/05 00:23:14;;;;;;;;;;;16.00;95.80;;;;;;6127327;23;19972;-73
2023/11/05 00:25:40;;;;;;;;;;;16.10;95.90;;;;;;6126928;23;19908;-73
2023/11/05 00:28:06;;;;;;;;;;;16.10;95.90;;;;;;6127767;23;19947;-73
2023/11/05 00:30:32;;;;;;;;;;;16.00;95.70;;;;;;6126862;23;19932;-73
2023/11/05 00:32:58;;;;;;;;;;;16.20;96.00;;;;;;6126784;23;19904;-73
2023/11/05 00:35:24;;;;;;;;;;;16.00;95.90;;;;;;6127280;23;19900;-73
2023/11/05 00:37:50;;;;;;;;;;;16.00;95.90;;;;;;6127190;23;19924;-73
2023/11/05 00:40:16;;;;;;;;;;;16.00;95.90;;;;;;6126770;23;20256;-70
2023/11/05 00:42:42;;;;;;;;;;;16.10;95.80;;;;;;6127167;23;19917;-70
2023/11/05 00:45:08;;;;;;;;;;;16.30;95.80;;;;;;6126841;23;19996;-70
2023/11/05 00:47:34;;;;;;;;;;;16.00;95.70;;;;;;6127075;23;19983;-71
2023/11/05 00:50:00;;;;;;;;;;;16.10;95.90;;;;;;6126787;23;20317;-70
2023/11/05 00:52:28;;;;;;;;;;;16.00;95.80;;;;;;6126717;23;19901;-70
2023/11/05 00:54:54;;;;;;;;;;;16.10;95.90;;;;;;6126657;23;19907;-70
2023/11/05 00:57:20;;;;;;;;;;;16.00;95.90;;;;;;6127384;23;19932;-73
2023/11/05 00:59:46;;;;;;;;;;;16.00;95.80;;;;;;6127139;23;20275;-73
2023/11/05 01:02:12;;;;;;;;;;;16.00;95.80;;;;;;6126683;23;19944;-73
2023/11/05 01:04:38;;;;;;;;;;;16.10;95.90;;;;;;6126676;23;19900;-73
2023/11/05 01:07:04;;;;;;;;;;;16.10;96.00;;;;;;6126635;23;19912;-71
2023/11/05 01:09:30;;;;;;;;;;;16.00;95.80;;;;;;6127066;23;19925;-73
2023/11/05 01:11:55;;;;;;;;;;;16.10;95.90;;;;;;6126605;23;19901;-73
2023/11/05 01:14:21;;;;;;;;;;;16.10;96.00;;;;;;6126955;23;19904;-73
2023/11/05 01:16:47;;;;;;;;;;;16.10;96.00;;;;;;6126838;23;19983;-74
2023/11/05 01:19:13;;;;;;;;;;;15.90;95.80;;;;;;6126871;23;19928;-74
2023/11/05 01:21:40;;;;;;;;;;;16.10;96.00;;;;;;6126596;23;19925;-74
2023/11/05 01:24:06;;;;;;;;;;;16.00;96.10;;;;;;6127428;23;19988;-71
2023/11/05 01:26:32;;;;;;;;;;;16.10;95.20;;;;;;6126778;23;19901;-70
2023/11/05 01:29:00;;;;;;;;;;;16.00;96.20;;;;;;6126758;23;20237;-70
2023/11/05 01:31:27;;;;;;;;;;;16.10;96.10;;;;;;6126334;23;20325;-70
2023/11/05 01:33:53;;;;;;;;;;;16.00;96.20;;;;;;6126754;23;19901;-70
2023/11/05 01:36:19;;;;;;;;;;;16.10;96.50;;;;;;6126861;23;19907;-70
2023/11/05 01:38:45;;;;;;;;;;;16.10;96.20;;;;;;6126471;23;20307;-70
2023/11/05 01:41:11;;;;;;;;;;;16.00;96.00;;;;;;6126725;23;20290;-70
2023/11/05 01:43:38;;;;;;;;;;;16.20;96.20;;;;;;6126500;23;19940;-70
2023/11/05 01:46:04;;;;;;;;;;;16.10;96.20;;;;;;6126390;23;19956;-70
2023/11/05 01:48:30;;;;;;;;;;;16.10;96.10;;;;;;6126346;23;19908;-70
2023/11/05 01:50:56;;;;;;;;;;;16.00;96.30;;;;;;6126298;23;19924;-70
2023/11/05 01:53:23;;;;;;;;;;;16.00;96.10;;;;;;6127201;23;20032;-70
2023/11/05 01:55:49;;;;;;;;;;;16.10;96.30;;;;;;6126171;23;19909;-70
2023/11/05 01:58:16;;;;;;;;;;;16.10;96.20;;;;;;6126158;23;20309;-70
2023/11/05 02:00:41;;;;;;;;;;;16.10;96.20;;;;;;6126555;23;19956;-70
2023/11/05 02:03:08;;;;;;;;;;;16.00;96.10;;;;;;6126397;23;19909;-70
2023/11/05 02:05:34;;;;;;;;;;;16.10;96.30;;;;;;6126582;23;20276;-70
2023/11/05 02:08:01;;;;;;;;;;;16.20;96.20;;;;;;6126488;23;19901;-70
2023/11/05 02:10:27;;;;;;;;;;;16.10;96.10;;;;;;6126471;23;19901;-70
2023/11/05 02:12:59;;;;;;;;;;;16.20;96.20;;;;;;6126348;23;19907;-70
2023/11/05 02:15:27;;;;;;;;;;;16.10;93.90;;;;;;6125820;23;19928;-70
2023/11/05 02:17:53;;;;;;;;;;;16.10;96.30;;;;;;6125937;23;19900;-70
2023/11/05 02:20:19;;;;;;;;;;;16.20;96.20;;;;;;6126374;23;19905;-70
2023/11/05 02:22:46;;;;;;;;;;;16.10;96.10;;;;;;6126862;23;20241;-73
2023/11/05 02:25:18;;;;;;;;;;;16.20;96.40;;;;;;6126258;23;19901;-73
2023/11/05 02:27:50;;;;;;;;;;;16.40;96.20;;;;;;6135577;23;19901;-73
2023/11/05 02:30:33;;;;;;;;;;;16.10;94.10;;;;;;6123585;23;19901;-72
2023/11/05 02:33:00;;;;;;;;;;;16.20;96.10;;;;;;6125986;23;19907;-70
2023/11/05 02:35:26;;;;;;;;;;;16.10;96.20;;;;;;6125885;23;20265;-70
2023/11/05 02:37:52;;;;;;;;;;;15.90;96.00;;;;;;6125831;23;19907;-70
2023/11/05 02:40:18;;;;;;;;;;;16.20;96.10;;;;;;6125754;23;19923;-70
2023/11/05 02:42:44;;;;;;;;;;;16.30;96.30;;;;;;6125837;23;19913;-70
2023/11/05 02:45:12;;;;;;;;;;;16.10;96.20;;;;;;6126238;23;20248;-70
2023/11/05 02:47:38;;;;;;;;;;;16.20;96.20;;;;;;6126007;23;19900;-70
2023/11/05 02:50:05;;;;;;;;;;;16.10;96.00;;;;;;6126253;23;19901;-73
2023/11/05 02:52:31;;;;;;;;;;;16.20;95.40;;;;;;6126048;23;19901;-72
2023/11/05 02:54:57;;;;;;;;;;;16.20;96.30;;;;;;6126074;23;19963;-73
2023/11/05 02:57:23;;;;;;;;;;;16.20;96.20;;;;;;6126036;23;19901;-73
2023/11/05 02:59:49;;;;;;;;;;;16.20;96.20;;;;;;6126205;23;20205;-73
2023/11/05 03:02:15;;;;;;;;;;;16.10;96.00;;;;;;6125626;23;19913;-70
2023/11/05 03:04:41;;;;;;;;;;;16.10;96.00;;;;;;6126059;23;19901;-70
2023/11/05 03:07:07;;;;;;;;;;;16.20;96.20;;;;;;6126012;23;20288;-70
2023/11/05 03:09:33;;;;;;;;;;;16.20;96.30;;;;;;6125974;23;19905;-70
2023/11/05 03:11:59;;;;;;;;;;;16.20;96.30;;;;;;6125936;23;20177;-70
2023/11/05 03:14:26;;;;;;;;;;;16.20;96.50;;;;;;6125923;23;19901;-70
2023/11/05 03:16:52;;;;;;;;;;;16.20;96.20;;;;;;6125388;23;20317;-70
2023/11/05 03:19:18;;;;;;;;;;;16.20;96.10;;;;;;6126092;23;19901;-72
2023/11/05 03:21:43;;;;;;;;;;;16.10;96.10;;;;;;6125868;23;19928;-73
2023/11/05 03:24:09;;;;;;;;;;;16.20;96.20;;;;;;6125797;23;19916;-73
2023/11/05 03:26:35;;;;;;;;;;;16.20;96.20;;;;;;6127524;23;19923;-73
2023/11/05 03:29:01;;;;;;;;;;;16.20;96.20;;;;;;6127471;23;19908;-73
2023/11/05 03:31:27;;;;;;;;;;;16.20;96.10;;;;;;6127589;23;19900;-73
2023/11/05 03:33:53;;;;;;;;;;;16.20;96.20;;;;;;6127860;23;19916;-73
2023/11/05 03:36:19;;;;;;;;;;;16.20;96.30;;;;;;6127529;23;20240;-73
2023/11/05 03:38:45;;;;;;;;;;;16.00;96.00;;;;;;6127326;23;20237;-72
2023/11/05 03:41:11;;;;;;;;;;;16.30;96.30;;;;;;6127862;23;19905;-73
2023/11/05 03:43:37;;;;;;;;;;;16.20;96.20;;;;;;6127352;23;20353;-73
2023/11/05 03:46:03;;;;;;;;;;;16.10;96.10;;;;;;6127447;23;19971;-73
2023/11/05 03:48:29;;;;;;;;;;;16.10;96.10;;;;;;6127971;23;19901;-70
2023/11/05 03:50:55;;;;;;;;;;;16.20;96.20;;;;;;6127712;23;19905;-70
2023/11/05 03:53:21;;;;;;;;;;;16.20;96.20;;;;;;6127817;23;19948;-70
2023/11/05 03:55:47;;;;;;;;;;;16.20;96.20;;;;;;6127438;23;20284;-70
2023/11/05 03:58:13;;;;;;;;;;;16.20;96.60;;;;;;6127087;23;19901;-70
2023/11/05 04:00:39;;;;;;;;;;;16.30;96.20;;;;;;6127371;23;19904;-73
2023/11/05 04:03:05;;;;;;;;;;;16.10;96.00;;;;;;6126777;23;19908;-73
2023/11/05 04:05:30;;;;;;;;;;;16.20;96.20;;;;;;6126969;23;19901;-73
2023/11/05 04:07:56;;;;;;;;;;;16.30;96.20;;;;;;6127351;23;19901;-72
2023/11/05 04:10:21;;;;;;;;;;;16.20;96.20;;;;;;6127019;23;19901;-73
2023/11/05 04:12:47;;;;;;;;;;;16.20;96.10;;;;;;6127139;23;20325;-73
2023/11/05 04:15:12;;;;;;;;;;;16.30;96.30;;;;;;6127553;23;19956;-73
2023/11/05 04:17:38;;;;;;;;;;;16.20;96.20;;;;;;6126800;23;19905;-73
2023/11/05 04:20:07;;;;;;;;;;;16.30;96.20;;;;;;6126822;23;19904;-73
2023/11/05 04:22:33;;;;;;;;;;;16.20;95.50;;;;;;6126880;23;19915;-73
2023/11/05 04:24:59;;;;;;;;;;;16.20;96.10;;;;;;6126742;23;19912;-73
2023/11/05 04:27:25;;;;;;;;;;;16.20;96.30;;;;;;6126873;23;19901;-73
2023/11/05 04:29:50;;;;;;;;;;;16.30;96.20;;;;;;6127379;23;19901;-73
2023/11/05 04:32:18;;;;;;;;;;;16.20;96.10;;;;;;6127418;23;19905;-73
2023/11/05 04:34:43;;;;;;;;;;;16.10;96.20;;;;;;6127191;23;19907;-73
2023/11/05 04:37:10;;;;;;;;;;;16.20;96.20;;;;;;6126867;23;20271;-73
2023/11/05 04:39:36;;;;;;;;;;;16.20;96.00;;;;;;6126781;23;19916;-73
2023/11/05 04:42:05;;;;;;;;;;;16.20;96.30;;;;;;6126964;23;19908;-73
2023/11/05 04:44:32;;;;;;;;;;;16.20;96.10;;;;;;6127143;23;19908;-70
2023/11/05 04:46:59;;;;;;;;;;;16.10;96.10;;;;;;6127046;23;19943;-70
2023/11/05 04:49:28;;;;;;;;;;;16.20;96.10;;;;;;6127067;23;19955;-71
2023/11/05 04:51:54;;;;;;;;;;;16.20;93.90;;;;;;6127033;23;19901;-70
2023/11/05 04:54:20;;;;;;;;;;;16.20;96.30;;;;;;6127167;23;19976;-70
2023/11/05 04:56:46;;;;;;;;;;;16.20;96.20;;;;;;6126722;23;20305;-70
2023/11/05 04:59:12;;;;;;;;;;;16.20;96.10;;;;;;6126946;23;19901;-70
2023/11/05 05:01:37;;;;;;;;;;;16.20;96.10;;;;;;6126494;23;19900;-70
2023/11/05 05:04:03;;;;;;;;;;;16.20;96.20;;;;;;6126808;23;19909;-70
2023/11/05 05:06:29;;;;;;;;;;;16.20;95.70;;;;;;6126589;23;20309;-70
2023/11/05 05:08:56;;;;;;;;;;;;;;;;;;6126527;23;19956;-70
2023/11/05 05:11:22;;;;;;;;;;;16.10;93.80;;;;;;6126991;23;19907;-70
2023/11/05 05:13:47;;;;;;;;;;;16.20;96.20;;;;;;6126920;23;20328;-70
2023/11/05 05:16:16;;;;;;;;;;;16.40;96.20;;;;;;6126156;23;19901;-70
2023/11/05 05:18:42;;;;;;;;;;;16.20;93.90;;;;;;6126291;23;19936;-70
2023/11/05 05:21:08;;;;;;;;;;;16.30;96.20;;;;;;6126183;23;19908;-70
2023/11/05 05:23:33;;;;;;;;;;;16.20;96.20;;;;;;6126263;23;19916;-70
2023/11/05 05:25:59;;;;;;;;;;;16.20;96.30;;;;;;6126227;23;19928;-73
2023/11/05 05:28:24;;;;;;;;;;;16.20;96.10;;;;;;6126775;23;19908;-73
2023/11/05 05:30:50;;;;;;;;;;;16.20;96.00;;;;;;6126186;23;20339;-73
2023/11/05 05:33:16;;;;;;;;;;;16.10;96.30;;;;;;6126321;23;19901;-74
2023/11/05 05:35:42;;;;;;;;;;;16.20;96.10;;;;;;6126804;23;19901;-74
2023/11/05 05:38:08;;;;;;;;;;;16.20;96.40;;;;;;6126449;23;19983;-74
2023/11/05 05:40:34;;;;;;;;;;;16.20;96.30;;;;;;6136567;23;19983;-70
2023/11/05 05:43:00;;;;;;;;;;;16.20;96.40;;;;;;6126088;23;20017;-70
2023/11/05 05:45:26;;;;;;;;;;;16.20;96.40;;;;;;6126272;23;19901;-70
2023/11/05 05:47:52;;;;;;;;;;;16.20;96.40;;;;;;6126541;23;19908;-70
2023/11/05 05:50:18;;;;;;;;;;;16.20;96.50;;;;;;6126493;23;19985;-70
2023/11/05 05:52:44;;;;;;;;;;;16.20;96.50;;;;;;6126578;23;19901;-70
2023/11/05 05:55:14;;;;;;;;;;;16.10;96.20;;;;;;6126344;23;19908;-70
2023/11/05 05:57:43;;;;;;;;;;;16.30;96.40;;;;;;6135664;23;19908;-70
2023/11/05 06:00:11;;;;;;;;;;;16.40;96.50;;;;;;6126107;23;19908;-70
2023/11/05 06:02:38;;;;;;;;;;;16.10;96.40;;;;;;6126186;23;19944;-70
2023/11/05 06:05:04;;;;;;;;;;;16.50;96.30;;;;;;6126089;23;19904;-71
2023/11/05 06:07:31;;;;;;;;;;;16.20;96.00;;;;;;6126701;23;19908;-70
2023/11/05 06:09:57;;;;;;;;;;;16.20;96.40;;;;;;6126611;23;19907;-70
2023/11/05 06:12:23;;;;;;;;;;;16.30;96.50;;;;;;6125757;23;19901;-70
2023/11/05 06:14:49;;;;;;;;;;;16.20;96.50;;;;;;6126363;23;19908;-70
2023/11/05 06:17:15;;;;;;;;;;;16.20;96.70;;;;;;6126275;23;19901;-70
2023/11/05 06:19:44;;;;;;;;;;;16.20;95.60;;;;;;6126379;23;20236;-71
2023/11/05 06:22:10;;;;;;;;;;;16.20;95.90;;;;;;6126030;23;19904;-70
2023/11/05 06:24:38;;;;;;;;;;;16.30;96.40;;;;;;6126389;23;20265;-70
2023/11/05 06:27:03;;;;;;;;;;;16.30;96.60;;;;;;6125589;23;19908;-70
2023/11/05 06:29:29;;;;;;;;;;;16.30;96.30;;;;;;6126363;23;20022;-71
2023/11/05 06:31:55;;;;;;;;;;;16.10;96.20;;;;;;6126025;23;20039;-71
2023/11/05 06:34:21;;;;;;;;;;;16.30;96.50;;;;;;6126243;23;19901;-70
2023/11/05 06:37:05;;;;;;;;;;;16.30;96.40;;;;;;6125923;23;20244;-70
2023/11/05 06:39:33;;;;;;;;;;;16.20;94.10;;;;;;6129868;23;19912;-71
2023/11/05 06:41:59;;;;;;;;;;;16.40;96.30;;;;;;6126272;23;19909;-70
2023/11/05 06:44:25;;;;;;;;;;;16.30;96.40;;;;;;6126142;23;19915;-70
2023/11/05 06:46:51;;;;;;;;;;;16.30;96.40;;;;;;6126119;23;19901;-71
2023/11/05 06:49:17;;;;;;;;;;;16.30;96.30;;;;;;6126109;23;19901;-71
2023/11/05 06:51:43;;;;;;;;;;;16.30;96.40;;;;;;6126197;23;19923;-70
2023/11/05 06:54:08;;;;;;;;;;;16.30;96.40;;;;;;6126093;23;20210;-70
2023/11/05 06:56:35;;;;;;;;;;;16.40;96.50;;;;;;6126168;23;19901;-70
2023/11/05 06:59:01;;;;;;;;;;;16.30;96.50;;;;;;6125780;23;19901;-70
2023/11/05 07:01:29;;;;;;;;;;;16.30;96.30;;;;;;6125803;23;19944;-71
2023/11/05 07:03:55;;;;;;;;;;;16.40;96.50;;;;;;6125967;23;19913;-71
2023/11/05 07:06:21;;;;;;;;;;;16.40;96.30;;;;;;6126686;23;19901;-73
2023/11/05 07:08:47;;;;;;;;;;;16.40;96.20;;;;;;6125862;23;19936;-73
2023/11/05 07:11:13;;;;;;;;;;;16.30;96.40;;;;;;6126088;23;19933;-73
2023/11/05 07:13:39;;;;;;;;;;;16.40;96.30;;;;;;6126126;23;19992;-73
2023/11/05 07:16:05;;;;;;;;;;;16.40;96.40;;;;;;6126144;23;19908;-73
2023/11/05 07:18:31;;;;;;;;;;;16.40;95.90;;;;;;6125771;23;19908;-70
2023/11/05 07:20:57;;;;;;;;;;;16.30;96.50;;;;;;6126024;23;19901;-70
2023/11/05 07:23:23;;;;;;;;;;;16.40;96.40;;;;;;6125903;23;19916;-70
2023/11/05 07:25:49;;;;;;;;;;;16.30;96.10;;;;;;6125953;23;19932;-70
2023/11/05 07:28:14;;;;;;;;;;;16.40;96.40;;;;;;6125354;23;19998;-70
2023/11/05 07:30:40;;;;;;;;;;;16.20;96.10;;;;;;6125343;23;19908;-70
2023/11/05 07:33:09;;;;;;;;;;;16.60;96.30;;;;;;6125931;23;19944;-70
2023/11/05 07:35:36;;;;;;;;;;;16.40;96.30;;;;;;6126242;23;19946;-71
2023/11/05 07:38:02;;;;;;;;;;;16.40;96.30;;;;;;6125817;23;19901;-71
2023/11/05 07:40:28;;;;;;;;;;;16.50;96.20;;;;;;6125413;23;19947;-70
2023/11/05 07:42:55;;;;;;;;;;;16.30;96.20;;;;;;6126120;23;20220;-70
2023/11/05 07:45:21;;;;;;;;;;;16.30;96.00;;;;;;6125837;23;19900;-71
2023/11/05 07:47:46;;;;;;;;;;;16.40;96.40;;;;;;6125903;23;19908;-70
2023/11/05 07:50:12;;;;;;;;;;;16.60;96.30;;;;;;6125509;23;20201;-70
2023/11/05 07:52:40;;;;;;;;;;;16.30;96.10;;;;;;6125287;23;19911;-71
2023/11/05 07:55:10;;;;;;;;;;;16.40;96.40;;;;;;6125312;23;19976;-70
2023/11/05 07:57:35;;;;;;;;;;;16.50;95.80;;;;;;6125237;23;20332;-71
2023/11/05 08:00:02;;;;;;;;;;;16.40;96.30;;;;;;6125874;23;19948;-71
2023/11/05 08:02:28;;;;;;;;;;;16.40;96.10;;;;;;6125289;23;19913;-70
2023/11/05 08:04:56;;;;;;;;;;;16.50;96.20;;;;;;6125814;23;19953;-71
2023/11/05 08:07:21;;;;;;;;;;;16.50;96.20;;;;;;6125596;23;19908;-70
2023/11/05 08:09:47;;;;;;;;;;;16.40;96.20;;;;;;6125113;23;19925;-70
2023/11/05 08:12:12;;;;;;;;;;;16.60;96.20;;;;;;6100466;23;20020;-76
2023/11/05 08:14:38;;;;;;;;;;;16.60;96.50;;;;;;6127045;23;20321;-73
2023/11/05 08:17:04;;;;;;;;;;;16.40;96.10;;;;;;6127437;23;19901;-73
2023/11/05 08:19:29;;;;;;;;;;;16.50;96.30;;;;;;6126784;23;19929;-72
2023/11/05 08:21:56;;;;;;;;;;;;;;;;;;6127428;23;19901;-72
2023/11/05 08:24:24;;;;;;;;;;;16.40;95.00;;;;;;6126905;23;19912;-72
2023/11/05 08:26:50;;;;;;;;;;;16.50;96.20;;;;;;6127100;23;20272;-73
2023/11/05 08:29:15;;;;;;;;;;;16.60;96.40;;;;;;6126988;23;19901;-72
2023/11/05 08:31:42;;;;;;;;;;;16.50;96.20;;;;;;6127891;23;19976;-73
2023/11/05 08:34:08;;;;;;;;;;;16.50;96.20;;;;;;6127232;23;19957;-71
2023/11/05 08:36:34;;;;;;;;;;;16.50;96.20;;;;;;6127303;23;20282;-72
2023/11/05 08:39:01;;;;;;;;;;;16.40;96.00;;;;;;6126993;23;20000;-72
2023/11/05 08:41:27;;;;;;;;;;;16.50;96.20;;;;;;6126845;23;20288;-81
2023/11/05 08:43:53;;;;;;;;;;;16.50;96.20;;;;;;6126763;23;19909;-72
2023/11/05 08:46:19;;;;;;;;;;;16.50;96.20;;;;;;6127203;23;19908;-71
2023/11/05 08:48:45;;;;;;;;;;;16.50;96.10;;;;;;6126812;23;19901;-71
2023/11/05 08:51:11;;;;;;;;;;;16.60;96.20;;;;;;6126768;23;19908;-71
2023/11/05 08:53:37;;;;;;;;;;;16.50;96.10;;;;;;6126748;23;19932;-71
2023/11/05 08:56:04;;;;;;;;;;;16.50;96.10;;;;;;6127069;23;19971;-71
2023/11/05 08:58:29;;;;;;;;;;;16.40;95.90;;;;;;6126683;23;20321;-71
2023/11/05 09:00:56;;;;;;;;;;;16.50;96.00;;;;;;6127610;23;19931;-70
2023/11/05 09:03:23;;;;;;;;;;;16.50;95.90;;;;;;6126901;23;19992;-70
2023/11/05 09:05:49;;;;;;;;;;;16.60;96.20;;;;;;6126838;23;19901;-70
2023/11/05 09:08:15;;;;;;;;;;;16.60;96.10;;;;;;6126952;23;19928;-70
2023/11/05 09:10:41;;;;;;;;;;;16.50;96.00;;;;;;6126551;23;19971;-70
2023/11/05 09:13:07;;;;;;;;;;;16.50;95.80;;;;;;6126651;23;19900;-70
2023/11/05 09:15:35;;;;;;;;;;;16.50;96.00;;;;;;6126587;23;19901;-70
2023/11/05 09:18:01;;;;;;;;;;;16.50;95.90;;;;;;6126810;23;19923;-70
2023/11/05 09:20:26;;;;;;;;;;;16.40;96.10;;;;;;6126280;23;20313;-70
2023/11/05 09:22:52;;;;;;;;;;;16.50;96.10;;;;;;6099962;23;20321;-71
2023/11/05 09:25:18;;;;;;;;;;;16.50;96.00;;;;;;6126828;23;19900;-70
2023/11/05 09:27:44;;;;;;;;;;;16.60;95.90;;;;;;6126809;23;19908;-70
2023/11/05 09:30:14;;;;;;;;;;;16.50;95.90;;;;;;6100876;23;20202;-71
2023/11/05 09:32:42;;;;;;;;;;;16.60;95.80;;;;;;6126149;23;19904;-70
2023/11/05 09:35:12;;;;;;;;;;;16.60;96.20;;;;;;6126500;23;20309;-70
2023/11/05 09:37:39;;;;;;;;;;;16.50;96.10;;;;;;6126731;23;19908;-70
2023/11/05 09:40:06;;;;;;;;;;;16.60;96.20;;;;;;6126009;23;19913;-70
2023/11/05 09:42:33;;;;;;;;;;;16.60;95.00;;;;;;6126469;23;19908;-71
2023/11/05 09:45:00;;;;;;;;;;;16.60;96.10;;;;;;6126175;23;20333;-71
2023/11/05 09:47:26;;;;;;;;;;;16.60;96.10;;;;;;6127057;23;19901;-71
2023/11/05 09:49:52;;;;;;;;;;;16.50;96.00;;;;;;6126599;23;19976;-70
2023/11/05 09:52:19;;;;;;;;;;;16.70;96.10;;;;;;6126498;23;19978;-70
2023/11/05 09:54:45;;;;;;;;;;;16.60;96.10;;;;;;6126174;23;19901;-71
2023/11/05 09:57:11;;;;;;;;;;;16.50;96.00;;;;;;6126530;23;19956;-70
2023/11/05 09:59:45;;;;;;;;;;;16.60;96.10;;;;;;6126198;23;19905;-70
2023/11/05 10:02:11;;;;;;;;;;;16.50;95.90;;;;;;6126229;23;19948;-71
2023/11/05 10:04:38;;;;;;;;;;;16.60;95.90;;;;;;6125859;23;19932;-70
2023/11/05 10:07:04;;;;;;;;;;;16.40;95.80;;;;;;6126346;23;19983;-70
2023/11/05 10:09:30;;;;;;;;;;;16.60;96.00;;;;;;6127341;23;19901;-70
2023/11/05 10:11:56;;;;;;;;;;;16.60;96.00;;;;;;6126339;23;20159;-69
2023/11/05 10:14:22;;;;;;;;;;;16.50;95.90;;;;;;6126720;23;19907;-70
2023/11/05 10:16:48;;;;;;;;;;;16.60;96.40;;;;;;6126900;23;19900;-75
2023/11/05 10:19:14;;;;;;;;;;;16.60;96.00;;;;;;6126680;23;19900;-75
2023/11/05 10:21:40;;;;;;;;;;;16.60;96.00;;;;;;6126350;23;19948;-76
2023/11/05 10:24:07;;;;;;;;;;;16.60;96.10;;;;;;6125763;23;19915;-75
2023/11/05 10:26:33;;;;;;;;;;;16.60;95.00;;;;;;6125781;23;19900;-74
2023/11/05 10:29:00;;;;;;;;;;;16.60;95.80;;;;;;6125837;23;19904;-70
2023/11/05 10:31:26;;;;;;;;;;;16.60;96.10;;;;;;6125683;23;19908;-70
2023/11/05 10:33:52;;;;;;;;;;;16.60;96.00;;;;;;6135445;23;19901;-71
2023/11/05 10:36:18;;;;;;;;;;;16.50;95.70;;;;;;6125272;23;19956;-72
2023/11/05 10:38:45;;;;;;;;;;;16.60;95.90;;;;;;6125974;23;19909;-71
2023/11/05 10:41:12;;;;;;;;;;;16.50;95.80;;;;;;6135372;23;20380;-72
2023/11/05 10:43:38;;;;;;;;;;;16.70;96.10;;;;;;6125748;23;19909;-71
2023/11/05 10:46:05;;;;;;;;;;;16.60;96.00;;;;;;6126738;23;19908;-71
2023/11/05 10:48:31;;;;;;;;;;;16.60;95.90;;;;;;6126100;23;20160;-71
2023/11/05 10:50:58;;;;;;;;;;;16.70;95.90;;;;;;6125949;23;20368;-70
2023/11/05 10:53:24;;;;;;;;;;;16.50;95.80;;;;;;6125894;23;19937;-71
2023/11/05 10:55:51;;;;;;;;;;;16.90;96.00;;;;;;6126193;23;19905;-75
2023/11/05 10:58:21;;;;;;;;;;;16.50;95.80;;;;;;6125776;23;19901;-75
2023/11/05 11:00:51;;;;;;;;;;;16.60;96.20;;;;;;6125437;23;19900;-75
2023/11/05 11:03:18;;;;;;;;;;;16.60;95.80;;;;;;6125440;23;20025;-75
2023/11/05 11:05:44;;;;;;;;;;;16.70;96.20;;;;;;6125991;23;19967;-74
2023/11/05 11:08:11;;;;;;;;;;;16.60;96.00;;;;;;6125707;23;20250;-74
2023/11/05 11:10:38;;;;;;;;;;;16.60;96.00;;;;;;6125491;23;19901;-75
2023/11/05 11:13:11;;;;;;;;;;;16.60;95.90;;;;;;6126389;23;19908;-70
2023/11/05 11:15:37;;;;;;;;;;;16.70;93.80;;;;;;6125934;23;19908;-70
2023/11/05 11:18:03;;;;;;;;;;;16.60;96.10;;;;;;6125964;23;19901;-71
2023/11/05 11:20:32;;;;;;;;;;;16.60;96.00;;;;;;6125613;23;20378;-70
2023/11/05 11:23:04;;;;;;;;;;;16.50;93.80;;;;;;6125976;23;20296;-70
2023/11/05 11:25:33;;;;;;;;;;;16.60;93.80;;;;;;6125794;23;19901;-70
2023/11/05 11:27:59;;;;;;;;;;;16.50;95.90;;;;;;6125786;23;19925;-70
2023/11/05 11:30:25;;;;;;;;;;;16.50;96.00;;;;;;6125832;23;19924;-72
2023/11/05 11:32:53;;;;;;;;;;;16.50;96.10;;;;;;6125604;23;19900;-70
2023/11/05 11:35:22;;;;;;;;;;;16.60;96.10;;;;;;6125879;23;19915;-75
2023/11/05 11:37:48;;;;;;;;;;;16.60;93.80;;;;;;6125692;23;20242;-70
2023/11/05 11:40:14;;;;;;;;;;;16.50;96.00;;;;;;6125133;23;20023;-71
2023/11/05 11:42:39;;;;;;;;;;;16.50;96.00;;;;;;6125648;23;19915;-71
2023/11/05 11:45:05;;;;;;;;;;;16.60;96.10;;;;;;6125245;23;20065;-71
2023/11/05 11:47:34;;;;;;;;;;;16.60;95.30;;;;;;6126869;23;19901;-71
2023/11/05 11:50:09;;;;;;;;;;;16.60;93.80;;;;;;6127243;23;19905;-71
2023/11/05 11:52:47;;;;;;;;;;;16.50;93.80;;;;;;6127107;23;19992;-71
2023/11/05 11:55:15;;;;;;;;;;;16.60;93.90;;;;;;6127211;23;19900;-75
2023/11/05 11:57:41;;;;;;;;;;;16.60;95.90;;;;;;6127088;23;19908;-75
2023/11/05 12:00:08;;;;;;;;;;;16.70;96.10;;;;;;6127233;23;20317;-74
2023/11/05 12:02:34;;;;;;;;;;;16.50;95.90;;;;;;6127094;23;19901;-73
2023/11/05 12:05:00;;;;;;;;;;;16.50;96.00;;;;;;6127429;23;19908;-75
2023/11/05 12:07:42;;;;;;;;;;;16.60;96.10;;;;;;6127215;23;20317;-83
2023/11/05 12:10:09;;;;;;;;;;;16.50;95.90;;;;;;6137724;23;19905;-75
2023/11/05 12:12:35;;;;;;;;;;;16.50;95.90;;;;;;6127268;23;20075;-74
2023/11/05 12:15:03;;;;;;;;;;;16.60;96.10;;;;;;6127626;23;20000;-74
2023/11/05 12:17:29;;;;;;;;;;;16.60;96.00;;;;;;6127317;23;19901;-74
2023/11/05 12:19:55;;;;;;;;;;;16.60;96.10;;;;;;6127017;23;19901;-74
2023/11/05 12:22:21;;;;;;;;;;;16.60;96.10;;;;;;6127400;23;19932;-73
2023/11/05 12:24:47;;;;;;;;;;;16.60;96.10;;;;;;6127414;23;19925;-73
2023/11/05 12:27:16;;;;;;;;;;;16.60;96.00;;;;;;6127092;23;19900;-74
2023/11/05 12:29:42;;;;;;;;;;;16.50;95.80;;;;;;6126820;23;19936;-73
2023/11/05 12:32:08;;;;;;;;;;;16.40;95.80;;;;;;6127292;23;19929;-73
2023/11/05 12:34:34;;;;;;;;;;;16.60;96.10;;;;;;6127446;23;20368;-72
2023/11/05 12:37:00;;;;;;;;;;;16.50;96.10;;;;;;6126836;23;19979;-72
2023/11/05 12:39:26;;;;;;;;;;;16.50;95.90;;;;;;6127542;23;19913;-76
2023/11/05 12:41:52;;;;;;;;;;;16.50;96.10;;;;;;6127193;23;20240;-77
2023/11/05 12:44:18;;;;;;;;;;;16.60;96.00;;;;;;6126935;23;19909;-76
2023/11/05 12:46:44;;;;;;;;;;;16.60;96.10;;;;;;6127176;23;19908;-74
2023/11/05 12:49:10;;;;;;;;;;;16.50;96.00;;;;;;6127296;23;19983;-78
2023/11/05 12:51:36;;;;;;;;;;;16.50;96.20;;;;;;6127055;23;19936;-72
2023/11/05 12:54:03;;;;;;;;;;;16.60;96.10;;;;;;6127242;23;19977;-72
2023/11/05 12:56:30;;;;;;;;;;;16.50;95.90;;;;;;6127163;23;19909;-72
2023/11/05 12:58:56;;;;;;;;;;;16.60;96.20;;;;;;6126903;23;19997;-72
2023/11/05 13:01:23;;;;;;;;;;;16.50;96.00;;;;;;6127096;23;19928;-72
2023/11/05 13:03:49;;;;;;;;;;;16.50;96.00;;;;;;6126790;23;19992;-72
2023/11/05 13:06:14;;;;;;;;;;;16.50;96.20;;;;;;6126675;23;19931;-72
2023/11/05 13:08:40;;;;;;;;;;;16.50;96.20;;;;;;6127776;23;20267;-72
2023/11/05 13:11:05;;;;;;;;;;;16.50;96.20;;;;;;6126637;23;19905;-72
2023/11/05 13:13:31;;;;;;;;;;;16.50;96.00;;;;;;6126440;23;19901;-73
2023/11/05 13:15:57;;;;;;;;;;;16.50;96.10;;;;;;6126719;23;20240;-71
2023/11/05 13:18:24;;;;;;;;;;;16.40;96.00;;;;;;6127096;23;19901;-77
2023/11/05 13:20:50;;;;;;;;;;;16.50;96.10;;;;;;6126786;23;20305;-76
2023/11/05 13:23:16;;;;;;;;;;;16.40;96.00;;;;;;6126868;23;19916;-76
2023/11/05 13:25:42;;;;;;;;;;;16.50;96.10;;;;;;6126602;23;19935;-76
2023/11/05 13:28:08;;;;;;;;;;;16.50;96.00;;;;;;6126974;23;19901;-76
2023/11/05 13:30:34;;;;;;;;;;;16.50;96.20;;;;;;6126890;23;20337;-76
2023/11/05 13:33:00;;;;;;;;;;;16.40;96.00;;;;;;6126896;23;19901;-76
2023/11/05 13:35:27;;;;;;;;;;;16.40;96.00;;;;;;6101768;23;20275;-76
2023/11/05 13:37:53;;;;;;;;;;;16.50;96.10;;;;;;6126523;23;19901;-76
2023/11/05 13:40:20;;;;;;;;;;;16.40;96.00;;;;;;6126288;23;19939;-76
2023/11/05 13:42:46;;;;;;;;;;;16.50;96.00;;;;;;6126242;23;20321;-75
2023/11/05 13:45:11;;;;;;;;;;;16.40;96.10;;;;;;6126235;23;19907;-77
2023/11/05 13:47:38;;;;;;;;;;;16.40;95.40;;;;;;6126560;23;20221;-76
2023/11/05 13:50:07;;;;;;;;;;;16.50;96.10;;;;;;6099668;23;19976;-75
2023/11/05 13:52:34;;;;;;;;;;;16.40;93.60;;;;;;6126262;23;19908;-77
2023/11/05 13:54:59;;;;;;;;;;;16.40;96.00;;;;;;6125856;23;20356;-82
2023/11/05 13:57:25;;;;;;;;;;;16.40;96.00;;;;;;6126394;23;19932;-77
2023/11/05 13:59:51;;;;;;;;;;;16.40;96.10;;;;;;6126148;23;20124;-79
2023/11/05 14:02:17;;;;;;;;;;;16.40;96.00;;;;;;6125908;23;19908;-81
2023/11/05 14:04:43;;;;;;;;;;;16.50;96.10;;;;;;6099978;23;19909;-77
2023/11/05 14:07:10;;;;;;;;;;;16.40;96.00;;;;;;6126203;23;19908;-74
2023/11/05 14:09:35;;;;;;;;;;;16.40;95.90;;;;;;6125645;23;19901;-73
2023/11/05 14:12:03;;;;;;;;;;;16.30;96.00;;;;;;6125911;23;19936;-74
2023/11/05 14:14:31;;;;;;;;;;;16.30;95.90;;;;;;6125926;23;19912;-73